Time;durP1;ratioP1;P1;durP2;ratioP2;P2;SDS_P1;SDS_P2;PMS_P1;PMS_P2;Temp;Humidity;BMP_temperature;BMP_pressure;BME280_temperature;BME280_humidity;BME280_pressure;Samples;Min_cycle;Max_cycle;Signal;HPM_P1;HPM_P2
2021/10/10 00:00:54;;;;;;;27.48;25.45;;;;;;;;;;5097107;28;20439;-86
2021/10/10 00:03:21;;;;;;;26.73;24.93;;;;;;;;;;5097164;28;20209;-86
2021/10/10 00:05:49;;;;;;;29.40;27.07;;;;;;;;;;5097169;28;20855;-87
2021/10/10 00:08:16;;;;;;;28.52;26.35;;;;;;;;;;5097335;28;20555;-86
2021/10/10 00:10:43;;;;;;;30.00;26.93;;;;;;;;;;5097014;28;20198;-86
2021/10/10 00:13:11;;;;;;;27.75;25.70;;;;;;;;;;5096956;28;20458;-86
2021/10/10 00:15:38;;;;;;;27.55;25.42;;;;;;;;;;5096778;28;20194;-86
2021/10/10 00:18:07;;;;;;;27.10;25.23;;;;;;;;;;5097022;28;20193;-87
2021/10/10 00:20:35;;;;;;;27.70;25.65;;;;;;;;;;5095368;28;20466;-86
2021/10/10 00:23:02;;;;;;;27.45;25.38;;;;;;;;;;5097002;28;20193;-86
2021/10/10 00:25:30;;;;;;;27.60;25.30;;;;;;;;;;5096853;28;20218;-86
2021/10/10 00:27:57;;;;;;;27.63;25.53;;;;;;;;;;5096538;28;20288;-87
2021/10/10 00:30:25;;;;;;;28.33;26.33;;;;;;;;;;5096188;28;20467;-87
2021/10/10 00:32:52;;;;;;;27.88;25.83;;;;;;;;;;5096733;28;20210;-87
2021/10/10 00:35:21;;;;;;;27.50;25.50;;;;;;;;;;5096619;28;20199;-86
2021/10/10 00:37:49;;;;;;;27.77;25.48;;;;;;;;;;5096394;28;20467;-86
2021/10/10 00:40:16;;;;;;;27.37;25.33;;;;;;;;;;5096184;28;20218;-86
2021/10/10 00:42:44;;;;;;;27.23;25.23;;;;;;;;;;5096439;28;20460;-86
2021/10/10 00:45:11;;;;;;;27.65;25.45;;;;;;;;;;5096192;28;20433;-86
2021/10/10 00:47:39;;;;;;;28.58;25.95;;;;;;;;;;5095245;28;20209;-86
2021/10/10 00:50:07;;;;;;;27.63;25.73;;;;;;;;;;5096381;28;20196;-86
2021/10/10 00:52:38;;;;;;;28.00;25.93;;;;;;;;;;5096440;28;20437;-86
2021/10/10 00:55:06;;;;;;;28.45;26.27;;;;;;;;;;5096101;28;20838;-86
2021/10/10 00:57:33;;;;;;;28.33;25.90;;;;;;;;;;5094383;28;20230;-86
2021/10/10 01:00:01;;;;;;;30.17;27.70;;;;;;;;;;5095740;28;20210;-86
2021/10/10 01:02:29;;;;;;;28.95;26.33;;;;;;;;;;5094781;28;20213;-86
2021/10/10 01:04:56;;;;;;;28.40;26.30;;;;;;;;;;5096134;28;20213;-86
2021/10/10 01:07:23;;;;;;;26.60;24.70;;;;;;;;;;5096026;28;20201;-87
2021/10/10 01:09:52;;;;;;;27.60;25.63;;;;;;;;;;5095711;28;20193;-86
2021/10/10 01:12:20;;;;;;;27.67;25.77;;;;;;;;;;5095916;28;20569;-86
2021/10/10 01:14:47;;;;;;;27.85;25.65;;;;;;;;;;5095645;28;20452;-86
2021/10/10 01:17:15;;;;;;;28.63;26.40;;;;;;;;;;5095851;28;20199;-86
2021/10/10 01:19:43;;;;;;;27.70;25.50;;;;;;;;;;5095311;28;20846;-86
2021/10/10 01:22:12;;;;;;;28.50;26.17;;;;;;;;;;5096104;28;20206;-86
2021/10/10 01:24:40;;;;;;;27.73;25.80;;;;;;;;;;5094292;28;20209;-86
2021/10/10 01:27:07;;;;;;;28.33;26.20;;;;;;;;;;5094216;28;20202;-86
2021/10/10 01:29:35;;;;;;;28.38;26.13;;;;;;;;;;5095485;28;20506;-86
2021/10/10 01:32:02;;;;;;;28.42;26.20;;;;;;;;;;5095429;28;20547;-86
2021/10/10 01:34:29;;;;;;;29.55;26.85;;;;;;;;;;5095165;28;20191;-86
2021/10/10 01:36:57;;;;;;;29.40;26.80;;;;;;;;;;5095139;28;20268;-86
2021/10/10 01:39:28;;;;;;;26.70;24.80;;;;;;;;;;5095295;28;20237;-86
2021/10/10 01:41:55;;;;;;;28.48;26.52;;;;;;;;;;5094543;28;20195;-86
2021/10/10 01:44:22;;;;;;;28.23;26.10;;;;;;;;;;5094071;28;20642;-86
2021/10/10 01:46:50;;;;;;;27.98;25.98;;;;;;;;;;5095283;28;20199;-87
2021/10/10 01:49:17;;;;;;;27.92;25.83;;;;;;;;;;5095267;28;20546;-86
2021/10/10 01:51:44;;;;;;;29.55;27.15;;;;;;;;;;5095381;28;20233;-86
2021/10/10 01:54:12;;;;;;;29.40;27.10;;;;;;;;;;5095166;28;20209;-86
2021/10/10 01:56:41;;;;;;;27.75;25.75;;;;;;;;;;5094583;28;20235;-86
2021/10/10 01:59:08;;;;;;;28.77;26.20;;;;;;;;;;5094731;28;20211;-85
2021/10/10 02:01:35;;;;;;;28.65;26.65;;;;;;;;;;5094843;28;20201;-86
2021/10/10 02:04:03;;;;;;;28.75;26.65;;;;;;;;;;5095046;28;20193;-86
2021/10/10 02:06:30;;;;;;;27.80;25.73;;;;;;;;;;5093291;28;20221;-86
2021/10/10 02:08:57;;;;;;;27.05;25.15;;;;;;;;;;5095019;28;20194;-86
2021/10/10 02:11:25;;;;;;;28.13;26.13;;;;;;;;;;5094682;28;20196;-87
2021/10/10 02:13:54;;;;;;;28.00;25.88;;;;;;;;;;5094728;28;20192;-87
2021/10/10 02:16:21;;;;;;;28.25;26.15;;;;;;;;;;5094568;28;20188;-85
2021/10/10 02:18:48;;;;;;;29.00;26.80;;;;;;;;;;5094450;28;20189;-86
2021/10/10 02:21:16;;;;;;;28.90;26.80;;;;;;;;;;5093283;28;20275;-84
2021/10/10 02:23:43;;;;;;;29.33;26.90;;;;;;;;;;5094480;28;20207;-86
2021/10/10 02:26:11;;;;;;;28.70;26.70;;;;;;;;;;5094254;28;20195;-86
2021/10/10 02:28:38;;;;;;;28.75;26.42;;;;;;;;;;5094255;28;20201;-86
2021/10/10 02:31:07;;;;;;;28.17;26.10;;;;;;;;;;5094182;28;20185;-86
2021/10/10 02:33:35;;;;;;;27.58;25.58;;;;;;;;;;5094336;28;20245;-86
2021/10/10 02:36:02;;;;;;;29.15;27.15;;;;;;;;;;5094425;28;20191;-86
2021/10/10 02:38:30;;;;;;;83.55;66.90;;;;;;;;;;5094091;28;20204;-86
2021/10/10 02:40:57;;;;;;;27.75;25.80;;;;;;;;;;5094470;28;20216;-86
2021/10/10 02:43:25;;;;;;;44.92;37.38;;;;;;;;;;5094250;28;20209;-86
2021/10/10 02:45:52;;;;;;;27.98;25.85;;;;;;;;;;5094003;28;20678;-86
2021/10/10 02:48:21;;;;;;;27.23;25.35;;;;;;;;;;5094199;28;20196;-86
2021/10/10 02:50:48;;;;;;;27.92;26.02;;;;;;;;;;5094360;28;20231;-85
2021/10/10 02:53:15;;;;;;;27.17;25.10;;;;;;;;;;5093684;28;20201;-86
2021/10/10 02:55:43;;;;;;;28.45;26.25;;;;;;;;;;5092911;28;20229;-86
2021/10/10 02:58:10;;;;;;;26.13;24.42;;;;;;;;;;5094177;28;20188;-86
2021/10/10 03:00:38;;;;;;;27.48;25.48;;;;;;;;;;5094091;28;20223;-86
2021/10/10 03:03:05;;;;;;;27.73;25.63;;;;;;;;;;5093709;28;20198;-86
2021/10/10 03:05:34;;;;;;;28.15;25.90;;;;;;;;;;5094171;28;20194;-86
2021/10/10 03:08:02;;;;;;;28.38;26.38;;;;;;;;;;5093909;28;20194;-85
2021/10/10 03:10:29;;;;;;;27.55;25.65;;;;;;;;;;5093816;28;20191;-85
2021/10/10 03:12:56;;;;;;;27.88;25.77;;;;;;;;;;5094130;28;20200;-86
2021/10/10 03:15:24;;;;;;;27.55;25.48;;;;;;;;;;5094005;28;20183;-86
2021/10/10 03:17:51;;;;;;;27.33;25.35;;;;;;;;;;5093944;28;20566;-86
2021/10/10 03:20:19;;;;;;;29.13;26.42;;;;;;;;;;5093545;28;20260;-86
2021/10/10 03:22:48;;;;;;;27.45;25.33;;;;;;;;;;5094072;28;20227;-85
2021/10/10 03:25:15;;;;;;;28.85;26.50;;;;;;;;;;5092697;28;20262;-87
2021/10/10 03:27:43;;;;;;;28.25;25.90;;;;;;;;;;5093483;28;20237;-86
2021/10/10 03:30:10;;;;;;;27.95;25.95;;;;;;;;;;5093748;28;20197;-86
2021/10/10 03:32:38;;;;;;;28.85;26.60;;;;;;;;;;5093625;28;20636;-86
2021/10/10 03:35:06;;;;;;;28.17;26.08;;;;;;;;;;5093885;28;20192;-86
2021/10/10 03:37:35;;;;;;;29.05;26.60;;;;;;;;;;5093463;28;20634;-86
2021/10/10 03:40:04;;;;;;;29.42;27.33;;;;;;;;;;5093580;28;20227;-86
2021/10/10 03:42:31;;;;;;;27.55;25.65;;;;;;;;;;5093544;28;20192;-86
2021/10/10 03:44:59;;;;;;;29.05;26.75;;;;;;;;;;5094033;28;20217;-86
2021/10/10 03:47:26;;;;;;;27.67;25.15;;;;;;;;;;5093760;28;20183;-85
2021/10/10 03:49:53;;;;;;;28.52;26.00;;;;;;;;;;5093688;28;20214;-86
2021/10/10 03:52:21;;;;;;;29.25;26.80;;;;;;;;;;5093634;28;20185;-86
2021/10/10 03:57:35;;;;;;;28.27;26.02;;;;;;;;;;5093163;28;20335;-86
2021/10/10 04:00:04;;;;;;;27.20;25.27;;;;;;;;;;5093615;28;20229;-86
2021/10/10 04:02:32;;;;;;;27.73;25.45;;;;;;;;;;5093614;28;20197;-86
2021/10/10 04:05:02;;;;;;;28.60;26.48;;;;;;;;;;5096094;28;20197;-85
2021/10/10 04:07:29;;;;;;;28.80;26.52;;;;;;;;;;5097327;28;20223;-86
2021/10/10 04:09:56;;;;;;;28.33;26.17;;;;;;;;;;5097139;28;20185;-85
2021/10/10 04:12:24;;;;;;;27.67;25.77;;;;;;;;;;5096745;28;20184;-87
2021/10/10 04:14:53;;;;;;;27.23;25.33;;;;;;;;;;5097182;28;20192;-86
2021/10/10 04:17:20;;;;;;;28.10;25.70;;;;;;;;;;5096964;28;20243;-86
2021/10/10 04:19:47;;;;;;;26.98;24.98;;;;;;;;;;5096681;28;20316;-86
2021/10/10 04:22:15;;;;;;;27.80;25.55;;;;;;;;;;5096962;28;20200;-86
2021/10/10 04:24:42;;;;;;;28.27;26.27;;;;;;;;;;5096533;28;20190;-87
2021/10/10 04:27:09;;;;;;;29.02;26.40;;;;;;;;;;5096862;28;20199;-86
2021/10/10 04:29:37;;;;;;;28.33;26.23;;;;;;;;;;5097013;28;20599;-86
2021/10/10 04:32:06;;;;;;;27.73;25.73;;;;;;;;;;5096865;28;20620;-86
2021/10/10 04:34:33;;;;;;;28.70;26.83;;;;;;;;;;5096531;28;20188;-86
2021/10/10 04:37:01;;;;;;;28.08;26.17;;;;;;;;;;5096560;28;20193;-86
2021/10/10 04:39:28;;;;;;;28.60;26.40;;;;;;;;;;5096588;28;20544;-86
2021/10/10 04:41:55;;;;;;;28.35;26.13;;;;;;;;;;5096205;28;20216;-86
2021/10/10 04:44:23;;;;;;;28.20;26.20;;;;;;;;;;5096512;27;20205;-86
2021/10/10 04:46:50;;;;;;;28.35;26.33;;;;;;;;;;5096583;28;20199;-86
2021/10/10 04:49:19;;;;;;;28.27;25.73;;;;;;;;;;5095091;28;20188;-86
2021/10/10 04:51:47;;;;;;;28.25;26.13;;;;;;;;;;5096289;28;20195;-86
2021/10/10 04:54:14;;;;;;;28.98;26.50;;;;;;;;;;5094867;28;20211;-85
2021/10/10 04:56:41;;;;;;;28.58;26.33;;;;;;;;;;5095956;28;20237;-86
2021/10/10 04:59:09;;;;;;;28.75;26.55;;;;;;;;;;5096259;28;20200;-85
2021/10/10 05:01:36;;;;;;;27.33;25.20;;;;;;;;;;5095698;28;20230;-86
2021/10/10 05:04:04;;;;;;;28.35;26.45;;;;;;;;;;5095909;28;20210;-87
2021/10/10 05:06:33;;;;;;;29.00;26.65;;;;;;;;;;5095172;28;20216;-86
2021/10/10 05:09:00;;;;;;;29.45;27.27;;;;;;;;;;5095929;28;20189;-87
2021/10/10 05:11:27;;;;;;;29.02;26.92;;;;;;;;;;5096154;28;20192;-86
2021/10/10 05:13:55;;;;;;;28.98;26.98;;;;;;;;;;5095787;28;20657;-86
2021/10/10 05:16:22;;;;;;;28.38;26.35;;;;;;;;;;5094807;28;20204;-87
2021/10/10 05:18:49;;;;;;;30.10;27.80;;;;;;;;;;5095896;28;20566;-86
2021/10/10 05:21:17;;;;;;;29.30;27.17;;;;;;;;;;5095383;28;20240;-87
2021/10/10 05:23:46;;;;;;;28.48;26.10;;;;;;;;;;5095777;28;20193;-87
2021/10/10 05:26:13;;;;;;;29.20;26.92;;;;;;;;;;5095325;28;20195;-86
2021/10/10 05:28:41;;;;;;;28.48;26.48;;;;;;;;;;5095551;28;20205;-87
2021/10/10 05:31:08;;;;;;;28.10;26.00;;;;;;;;;;5095265;28;20690;-86
2021/10/10 05:33:35;;;;;;;28.20;26.17;;;;;;;;;;5095404;28;20623;-87
2021/10/10 05:36:03;;;;;;;28.85;26.65;;;;;;;;;;5095307;28;20195;-86
2021/10/10 05:38:30;;;;;;;28.60;26.48;;;;;;;;;;5095482;28;20201;-87
2021/10/10 05:40:59;;;;;;;27.45;25.55;;;;;;;;;;5095615;28;20576;-87
2021/10/10 05:43:27;;;;;;;28.98;26.67;;;;;;;;;;5095623;28;20188;-87
2021/10/10 05:45:54;;;;;;;28.50;26.15;;;;;;;;;;5095394;28;20230;-87
2021/10/10 05:48:21;;;;;;;28.42;26.05;;;;;;;;;;5095334;28;20184;-87
2021/10/10 05:50:49;;;;;;;28.10;25.80;;;;;;;;;;5095377;28;20188;-86
2021/10/10 05:53:16;;;;;;;29.45;26.60;;;;;;;;;;5094859;28;20639;-87
2021/10/10 05:55:44;;;;;;;30.48;27.95;;;;;;;;;;5094976;28;20546;-87
2021/10/10 05:58:18;;;;;;;29.83;27.02;;;;;;;;;;5094969;28;20192;-86
2021/10/10 06:00:45;;;;;;;29.38;26.95;;;;;;;;;;5094820;28;20197;-84
2021/10/10 06:03:13;;;;;;;29.50;27.25;;;;;;;;;;5093164;28;20217;-84
2021/10/10 06:05:40;;;;;;;29.58;27.48;;;;;;;;;;5094594;28;20196;-84
2021/10/10 06:08:08;;;;;;;28.23;26.02;;;;;;;;;;5094798;28;20252;-86
2021/10/10 06:10:35;;;;;;;29.45;27.17;;;;;;;;;;5094821;28;20212;-87
2021/10/10 06:13:03;;;;;;;28.92;26.92;;;;;;;;;;5094775;28;20207;-84
2021/10/10 06:15:32;;;;;;;28.83;26.50;;;;;;;;;;5094321;28;20200;-83
2021/10/10 06:17:59;;;;;;;28.70;26.60;;;;;;;;;;5094154;28;20189;-83
2021/10/10 06:20:26;;;;;;;28.95;26.95;;;;;;;;;;5094012;28;20227;-84
2021/10/10 06:22:54;;;;;;;28.55;26.45;;;;;;;;;;5094048;28;20200;-84
2021/10/10 06:25:21;;;;;;;27.45;25.45;;;;;;;;;;5092813;28;20276;-84
2021/10/10 06:27:49;;;;;;;30.45;27.85;;;;;;;;;;5093658;28;20194;-84
2021/10/10 06:30:16;;;;;;;29.23;26.63;;;;;;;;;;5093907;28;20217;-84
2021/10/10 06:32:45;;;;;;;28.35;25.95;;;;;;;;;;5093010;28;20185;-83
2021/10/10 06:35:12;;;;;;;28.85;26.55;;;;;;;;;;5093865;28;20544;-84
2021/10/10 06:37:40;;;;;;;28.00;26.00;;;;;;;;;;5093946;28;20189;-84
2021/10/10 06:40:08;;;;;;;28.35;26.25;;;;;;;;;;5093868;28;20199;-84
2021/10/10 06:42:35;;;;;;;28.00;25.95;;;;;;;;;;5093759;28;20215;-83
2021/10/10 06:45:03;;;;;;;26.98;24.98;;;;;;;;;;5093491;28;20251;-84
2021/10/10 06:47:30;;;;;;;27.08;25.08;;;;;;;;;;5093968;28;20189;-83
2021/10/10 06:49:59;;;;;;;29.08;26.85;;;;;;;;;;5093827;28;20544;-83
2021/10/10 06:52:26;;;;;;;28.10;25.85;;;;;;;;;;5093461;28;20208;-84
2021/10/10 06:54:54;;;;;;;27.73;25.65;;;;;;;;;;5093625;28;20198;-84
2021/10/10 06:57:21;;;;;;;27.38;25.17;;;;;;;;;;5093097;28;20229;-83
2021/10/10 06:59:48;;;;;;;29.83;27.63;;;;;;;;;;5093767;28;20210;-84
2021/10/10 07:02:16;;;;;;;28.90;26.50;;;;;;;;;;5093558;28;20223;-84
2021/10/10 07:04:43;;;;;;;28.75;26.67;;;;;;;;;;5093507;28;20209;-84
2021/10/10 07:07:12;;;;;;;30.23;27.98;;;;;;;;;;5093257;28;20203;-84
2021/10/10 07:09:39;;;;;;;28.27;26.17;;;;;;;;;;5093297;28;20547;-83
2021/10/10 07:12:07;;;;;;;29.05;26.95;;;;;;;;;;5093426;28;20192;-84
2021/10/10 07:14:34;;;;;;;31.33;28.80;;;;;;;;;;5093472;28;20547;-84
2021/10/10 07:17:01;;;;;;;30.92;28.38;;;;;;;;;;5093272;28;20201;-83
2021/10/10 07:19:37;;;;;;;32.15;29.25;;;;;;;;;;5092106;28;20755;-84
2021/10/10 07:22:14;;;;;;;34.05;30.80;;;;;;;;;;5093238;28;20287;-84
2021/10/10 07:27:24;;;;;;;34.17;31.38;;;;;;;;;;5090254;28;20207;-84
2021/10/10 07:29:52;;;;;;;38.15;35.03;;;;;;;;;;5093037;28;20553;-84
2021/10/10 07:32:19;;;;;;;40.13;36.33;;;;;;;;;;5093191;28;20198;-84
2021/10/10 07:34:46;;;;;;;31.40;28.67;;;;;;;;;;5093111;28;20194;-83
2021/10/10 07:37:14;;;;;;;31.80;29.20;;;;;;;;;;5093632;28;20444;-84
2021/10/10 07:39:42;;;;;;;32.65;30.05;;;;;;;;;;5095213;28;20436;-84
2021/10/10 07:42:10;;;;;;;31.70;29.30;;;;;;;;;;5097072;28;20305;-84
2021/10/10 07:44:43;;;;;;;32.47;29.88;;;;;;;;;;5097121;28;20209;-84
2021/10/10 07:47:17;;;;;;;33.55;30.30;;;;;;;;;;5097177;28;20193;-84
2021/10/10 07:49:45;;;;;;;32.97;30.27;;;;;;;;;;5096965;28;20198;-84
2021/10/10 07:52:12;;;;;;;30.30;27.88;;;;;;;;;;5096972;28;20443;-84
2021/10/10 07:54:40;;;;;;;31.03;28.30;;;;;;;;;;5096971;28;20194;-84
2021/10/10 07:57:09;;;;;;;32.17;29.30;;;;;;;;;;5096299;28;20451;-84
2021/10/10 07:59:36;;;;;;;33.20;30.60;;;;;;;;;;5096596;28;20202;-85
2021/10/10 08:02:04;;;;;;;33.00;30.20;;;;;;;;;;5096427;28;20222;-84
2021/10/10 08:04:31;;;;;;;31.67;28.77;;;;;;;;;;5096181;28;20663;-85
2021/10/10 08:06:59;;;;;;;31.33;28.83;;;;;;;;;;5096755;28;20624;-84
2021/10/10 08:09:26;;;;;;;34.90;31.88;;;;;;;;;;5096662;28;20439;-83
2021/10/10 08:11:53;;;;;;;31.75;29.23;;;;;;;;;;5096784;28;20193;-84
2021/10/10 08:14:22;;;;;;;32.33;29.70;;;;;;;;;;5096420;28;20230;-84
2021/10/10 08:16:50;;;;;;;34.37;31.60;;;;;;;;;;5096227;28;20410;-84
2021/10/10 08:19:17;;;;;;;32.93;30.37;;;;;;;;;;5096316;28;20417;-84
2021/10/10 08:21:45;;;;;;;31.90;29.15;;;;;;;;;;5096257;28;20789;-84
2021/10/10 08:24:12;;;;;;;33.73;30.93;;;;;;;;;;5096554;28;20582;-84
2021/10/10 08:26:40;;;;;;;31.93;29.50;;;;;;;;;;5095995;28;20441;-84
2021/10/10 08:29:07;;;;;;;31.23;28.73;;;;;;;;;;5096018;28;20413;-83
2021/10/10 08:31:36;;;;;;;32.77;30.07;;;;;;;;;;5094805;28;20877;-84
2021/10/10 08:34:04;;;;;;;30.50;28.20;;;;;;;;;;5095975;28;20452;-84
2021/10/10 08:36:31;;;;;;;32.65;29.98;;;;;;;;;;5096307;28;20407;-83
2021/10/10 08:38:58;;;;;;;37.67;34.57;;;;;;;;;;5095630;28;20190;-84
2021/10/10 08:41:30;;;;;;;32.10;29.20;;;;;;;;;;5095893;28;20458;-84
2021/10/10 08:43:58;;;;;;;32.73;30.13;;;;;;;;;;5095922;28;20212;-84
2021/10/10 08:46:27;;;;;;;31.90;29.20;;;;;;;;;;5096016;28;20446;-84
2021/10/10 08:48:56;;;;;;;31.40;28.70;;;;;;;;;;5096180;28;20604;-84
2021/10/10 08:51:24;;;;;;;31.73;29.23;;;;;;;;;;5095507;28;20438;-85
2021/10/10 08:53:51;;;;;;;30.43;27.87;;;;;;;;;;5095698;28;20414;-84
2021/10/10 08:56:19;;;;;;;32.83;30.27;;;;;;;;;;5095360;28;20483;-84
2021/10/10 08:58:47;;;;;;;38.13;35.03;;;;;;;;;;5095682;28;20446;-84
2021/10/10 09:01:25;;;;;;;46.67;42.57;;;;;;;;;;5095502;28;21036;-84
2021/10/10 09:03:56;;;;;;;38.70;35.33;;;;;;;;;;5095518;28;20464;-84
2021/10/10 09:06:25;;;;;;;29.57;27.27;;;;;;;;;;5095579;28;20437;-84
2021/10/10 09:08:53;;;;;;;31.57;28.97;;;;;;;;;;5095458;28;20418;-84
2021/10/10 09:11:21;;;;;;;28.47;26.27;;;;;;;;;;5095304;28;20922;-84
2021/10/10 09:13:52;;;;;;;30.33;27.60;;;;;;;;;;5095289;28;20470;-84
2021/10/10 09:16:34;;;;;;;31.75;29.15;;;;;;;;;;5095290;28;20802;-84
2021/10/10 09:19:23;;;;;;;30.97;28.57;;;;;;;;;;5095450;28;20250;-84
2021/10/10 09:21:59;;;;;;;29.77;27.47;;;;;;;;;;5094935;28;20469;-84
2021/10/10 09:24:27;;;;;;;29.53;27.23;;;;;;;;;;5095439;28;20415;-84
2021/10/10 09:26:55;;;;;;;29.83;27.60;;;;;;;;;;5094962;28;20436;-84
2021/10/10 09:29:32;;;;;;;30.23;27.90;;;;;;;;;;5093909;28;20817;-84
2021/10/10 09:32:04;;;;;;;31.37;29.00;;;;;;;;;;5094780;28;20403;-84
2021/10/10 09:34:33;;;;;;;30.93;28.53;;;;;;;;;;5094785;28;20429;-84
2021/10/10 09:37:05;;;;;;;28.83;26.80;;;;;;;;;;5094576;28;20456;-84
2021/10/10 09:39:36;;;;;;;30.50;28.10;;;;;;;;;;5094770;28;20975;-84
2021/10/10 09:42:04;;;;;;;29.90;27.10;;;;;;;;;;5094756;28;20849;-84
2021/10/10 09:44:44;;;;;;;29.70;27.30;;;;;;;;;;5094835;28;20512;-84
2021/10/10 09:47:13;;;;;;;30.20;27.77;;;;;;;;;;5094861;28;20756;-84
2021/10/10 09:49:42;;;;;;;29.13;26.80;;;;;;;;;;5094932;28;20451;-84
2021/10/10 09:52:13;;;;;;;29.53;27.13;;;;;;;;;;5094552;28;20949;-84
2021/10/10 09:54:51;;;;;;;29.43;26.93;;;;;;;;;;5094426;28;20759;-84
2021/10/10 09:57:18;;;;;;;29.37;26.90;;;;;;;;;;5093924;28;20974;-83
2021/10/10 09:59:45;;;;;;;29.40;26.93;;;;;;;;;;5093591;28;20430;-84
2021/10/10 10:02:13;;;;;;;31.83;29.03;;;;;;;;;;5093306;28;20487;-84
2021/10/10 10:04:46;;;;;;;30.33;28.00;;;;;;;;;;5094082;28;20429;-84
2021/10/10 10:07:14;;;;;;;32.27;29.50;;;;;;;;;;5094483;28;20408;-84
2021/10/10 10:09:42;;;;;;;31.80;29.20;;;;;;;;;;5094188;28;20402;-83
2021/10/10 10:12:09;;;;;;;31.37;29.00;;;;;;;;;;5094433;28;20411;-84
2021/10/10 10:14:37;;;;;;;31.17;28.77;;;;;;;;;;5094373;28;20415;-83
2021/10/10 10:17:05;;;;;;;31.23;28.73;;;;;;;;;;5094043;28;20433;-84
2021/10/10 10:19:35;;;;;;;31.37;28.77;;;;;;;;;;5093102;28;20543;-84
2021/10/10 10:22:04;;;;;;;29.70;27.40;;;;;;;;;;5094107;28;20846;-84
2021/10/10 10:24:33;;;;;;;29.93;27.60;;;;;;;;;;5094082;28;20443;-84
2021/10/10 10:27:01;;;;;;;29.97;27.73;;;;;;;;;;5093880;28;20435;-84
2021/10/10 10:29:29;;;;;;;32.57;29.70;;;;;;;;;;5093823;28;20422;-84
2021/10/10 10:31:58;;;;;;;30.33;27.67;;;;;;;;;;5093414;28;20926;-84
2021/10/10 10:34:27;;;;;;;31.60;28.27;;;;;;;;;;5093571;28;20419;-84
2021/10/10 10:36:58;;;;;;;32.50;29.67;;;;;;;;;;5093423;28;20444;-84
2021/10/10 10:39:34;;;;;;;29.77;27.47;;;;;;;;;;5094060;28;20774;-83
2021/10/10 10:42:03;;;;;;;28.30;26.20;;;;;;;;;;5093545;28;20932;-83
2021/10/10 10:44:44;;;;;;;28.80;26.63;;;;;;;;;;5093771;28;20832;-83
2021/10/10 10:47:13;;;;;;;31.70;29.17;;;;;;;;;;5093415;28;20422;-84
2021/10/10 10:50:00;;;;;;;29.63;27.40;;;;;;;;;;5093753;28;20445;-84
2021/10/10 10:52:29;;;;;;;30.10;27.80;;;;;;;;;;5093678;28;20411;-83
2021/10/10 10:54:59;;;;;;;29.13;26.80;;;;;;;;;;5093466;28;20416;-84
2021/10/10 10:57:34;;;;;;;28.70;26.60;;;;;;;;;;5093028;28;20454;-84
2021/10/10 11:00:02;;;;;;;27.90;25.70;;;;;;;;;;5093596;28;20420;-84
2021/10/10 11:02:44;;;;;;;28.47;26.17;;;;;;;;;;5091991;28;20462;-84
2021/10/10 11:05:12;;;;;;;28.93;26.57;;;;;;;;;;5093592;28;20463;-84
2021/10/10 11:07:49;;;;;;;29.10;26.80;;;;;;;;;;5093346;28;20443;-84
2021/10/10 11:10:18;;;;;;;29.60;27.40;;;;;;;;;;5093341;28;20407;-83
2021/10/10 11:12:45;;;;;;;29.67;27.37;;;;;;;;;;5094083;28;20411;-84
2021/10/10 11:15:13;;;;;;;29.70;27.00;;;;;;;;;;5097820;28;20414;-84
2021/10/10 11:17:41;;;;;;;28.33;25.77;;;;;;;;;;5097390;28;20530;-84
2021/10/10 11:20:09;;;;;;;29.50;27.40;;;;;;;;;;5097365;28;20439;-83
2021/10/10 11:22:36;;;;;;;29.70;27.60;;;;;;;;;;5097180;28;20468;-84
2021/10/10 11:25:04;;;;;;;30.33;27.70;;;;;;;;;;5097265;28;20419;-84
2021/10/10 11:27:34;;;;;;;29.27;26.93;;;;;;;;;;5097094;28;20411;-84
2021/10/10 11:30:01;;;;;;;29.57;27.30;;;;;;;;;;5097148;28;20444;-84
2021/10/10 11:32:28;;;;;;;29.37;26.90;;;;;;;;;;5097415;28;20791;-84
2021/10/10 11:34:59;;;;;;;29.87;27.30;;;;;;;;;;5097288;28;20422;-84
2021/10/10 11:37:26;;;;;;;29.13;26.70;;;;;;;;;;5097322;28;20436;-84
2021/10/10 11:40:08;;;;;;;29.30;27.00;;;;;;;;;;5097200;28;20419;-84
2021/10/10 11:42:39;;;;;;;30.20;27.80;;;;;;;;;;5097137;28;20509;-84
2021/10/10 11:45:06;;;;;;;28.73;26.53;;;;;;;;;;5096736;28;20439;-83
2021/10/10 11:47:34;;;;;;;28.03;26.03;;;;;;;;;;5096635;28;20443;-84
2021/10/10 11:50:03;;;;;;;27.67;25.67;;;;;;;;;;5096839;28;20422;-84
2021/10/10 11:52:33;;;;;;;30.83;28.10;;;;;;;;;;5097155;28;20407;-84
2021/10/10 11:55:05;;;;;;;28.80;26.73;;;;;;;;;;5097073;28;20496;-84
2021/10/10 11:57:33;;;;;;;27.60;25.60;;;;;;;;;;5096159;28;20535;-84
2021/10/10 12:00:03;;;;;;;29.73;27.63;;;;;;;;;;5096989;28;20428;-84
2021/10/10 12:02:35;;;;;;;30.07;27.53;;;;;;;;;;5096440;28;20472;-84
2021/10/10 12:05:04;;;;;;;27.30;25.50;;;;;;;;;;5096955;28;20450;-84
2021/10/10 12:07:32;;;;;;;30.93;28.40;;;;;;;;;;5096224;28;20434;-84
2021/10/10 12:09:59;;;;;;;30.23;28.00;;;;;;;;;;5096861;27;20457;-84
2021/10/10 12:12:27;;;;;;;30.07;27.80;;;;;;;;;;5096700;28;20519;-83
2021/10/10 12:14:55;;;;;;;31.40;28.80;;;;;;;;;;5096615;28;20429;-84
2021/10/10 12:17:31;;;;;;;30.90;28.13;;;;;;;;;;5096127;28;20878;-83
2021/10/10 12:19:59;;;;;;;30.50;28.17;;;;;;;;;;5096563;28;20858;-83
2021/10/10 12:22:26;;;;;;;31.10;28.70;;;;;;;;;;5095919;28;20451;-83
2021/10/10 12:24:54;;;;;;;30.27;27.90;;;;;;;;;;5095365;28;20440;-84
2021/10/10 12:27:25;;;;;;;31.70;29.20;;;;;;;;;;5096162;28;20429;-84
2021/10/10 12:29:52;;;;;;;31.07;28.13;;;;;;;;;;5096311;28;20456;-84
2021/10/10 12:32:21;;;;;;;31.47;29.00;;;;;;;;;;5096191;28;20444;-85
2021/10/10 12:34:50;;;;;;;29.40;27.20;;;;;;;;;;5096039;28;20411;-84
2021/10/10 12:37:19;;;;;;;29.70;27.30;;;;;;;;;;5095922;28;20412;-84
2021/10/10 12:39:47;;;;;;;28.40;26.20;;;;;;;;;;5096115;28;20437;-84
2021/10/10 12:42:17;;;;;;;29.60;27.20;;;;;;;;;;5095529;28;20420;-83
2021/10/10 12:44:59;;;;;;;29.33;27.03;;;;;;;;;;5095658;28;20929;-84
2021/10/10 12:47:29;;;;;;;27.33;25.30;;;;;;;;;;5095326;28;20456;-82
2021/10/10 12:49:57;;;;;;;29.50;27.30;;;;;;;;;;5095742;28;20773;-83
2021/10/10 12:52:36;;;;;;;31.40;29.10;;;;;;;;;;5095649;28;20411;-83
2021/10/10 12:55:03;;;;;;;32.87;30.37;;;;;;;;;;5095684;28;20442;-84
2021/10/10 12:57:31;;;;;;;30.20;27.70;;;;;;;;;;5095113;28;20456;-84
2021/10/10 13:00:02;;;;;;;30.33;27.90;;;;;;;;;;5095375;28;20429;-83
2021/10/10 13:02:30;;;;;;;30.37;28.00;;;;;;;;;;5095685;28;20416;-84
2021/10/10 13:04:58;;;;;;;31.00;28.60;;;;;;;;;;5095666;28;20922;-84
2021/10/10 13:07:26;;;;;;;29.33;27.07;;;;;;;;;;5095445;28;20531;-84
2021/10/10 13:09:55;;;;;;;29.60;27.30;;;;;;;;;;5095389;28;20408;-84
2021/10/10 13:12:23;;;;;;;30.77;28.40;;;;;;;;;;5095306;28;20544;-84
2021/10/10 13:14:50;;;;;;;29.60;27.27;;;;;;;;;;5095232;28;20909;-84
2021/10/10 13:17:17;;;;;;;30.67;28.03;;;;;;;;;;5095407;28;20423;-84
2021/10/10 13:19:45;;;;;;;31.27;28.83;;;;;;;;;;5095103;28;20841;-83
2021/10/10 13:22:14;;;;;;;31.20;28.60;;;;;;;;;;5095144;28;20444;-84
2021/10/10 13:24:42;;;;;;;32.33;29.43;;;;;;;;;;5095144;28;20484;-83
2021/10/10 13:27:09;;;;;;;29.90;27.63;;;;;;;;;;5094699;28;20408;-83
2021/10/10 13:29:37;;;;;;;30.07;27.53;;;;;;;;;;5095111;28;20768;-84
2021/10/10 13:32:04;;;;;;;29.47;27.07;;;;;;;;;;5095126;28;20444;-84
2021/10/10 13:34:31;;;;;;;32.90;29.97;;;;;;;;;;5094914;28;20793;-84
2021/10/10 13:36:59;;;;;;;32.10;29.40;;;;;;;;;;5093401;28;20415;-84
2021/10/10 13:39:28;;;;;;;33.23;30.30;;;;;;;;;;5095070;28;20433;-84
2021/10/10 13:41:55;;;;;;;30.17;27.87;;;;;;;;;;5094702;28;20440;-84
2021/10/10 13:44:22;;;;;;;30.10;27.90;;;;;;;;;;5094367;28;20477;-84
2021/10/10 13:46:50;;;;;;;30.83;28.33;;;;;;;;;;5094912;28;20437;-84
2021/10/10 13:49:17;;;;;;;30.17;27.77;;;;;;;;;;5094338;28;20412;-84
2021/10/10 13:51:45;;;;;;;32.43;29.77;;;;;;;;;;5094830;28;20418;-84
2021/10/10 13:54:12;;;;;;;30.33;28.13;;;;;;;;;;5094383;28;20429;-84
2021/10/10 13:56:41;;;;;;;29.47;27.30;;;;;;;;;;5094059;28;20484;-84
2021/10/10 13:59:08;;;;;;;30.80;28.50;;;;;;;;;;5094722;28;20416;-83
2021/10/10 14:01:36;;;;;;;30.17;27.77;;;;;;;;;;5094682;28;20420;-84
2021/10/10 14:04:03;;;;;;;30.20;27.80;;;;;;;;;;5094235;28;20447;-84
2021/10/10 14:06:31;;;;;;;31.07;28.77;;;;;;;;;;5094031;28;20412;-84
2021/10/10 14:08:58;;;;;;;31.33;28.47;;;;;;;;;;5094292;28;20444;-84
2021/10/10 14:11:25;;;;;;;29.53;27.30;;;;;;;;;;5094146;28;20422;-83
2021/10/10 14:13:54;;;;;;;28.20;26.17;;;;;;;;;;5094228;28;20453;-85
2021/10/10 14:16:22;;;;;;;29.47;27.00;;;;;;;;;;5093946;28;20411;-84
2021/10/10 14:18:49;;;;;;;29.03;26.83;;;;;;;;;;5094319;28;20522;-84
2021/10/10 14:21:16;;;;;;;29.07;26.47;;;;;;;;;;5094149;28;20447;-84
2021/10/10 14:23:44;;;;;;;28.77;26.57;;;;;;;;;;5094119;28;20469;-84
2021/10/10 14:26:11;;;;;;;29.33;27.10;;;;;;;;;;5094298;28;20445;-85
2021/10/10 14:28:39;;;;;;;29.13;27.03;;;;;;;;;;5094102;28;20424;-84